Time;durP1;ratioP1;P1;durP2;ratioP2;P2;SDS_P1;SDS_P2;PMS_P1;PMS_P2;Temp;Humidity;BMP_temperature;BMP_pressure;BME280_temperature;BME280_humidity;BME280_pressure;Samples;Min_cycle;Max_cycle;Signal;HPM_P1;HPM_P2
2022/12/23 00:01:49;;;;;;;18.10;13.88;;;;;;;11.15;100.00;100235.13;5105716;29;20020;-71
2022/12/23 00:04:20;;;;;;;17.95;14.38;;;;;;;11.13;100.00;100237.88;5100304;29;20048;-71
2022/12/23 00:06:51;;;;;;;20.13;15.30;;;;;;;11.10;100.00;100239.97;5105977;29;20084;-71
2022/12/23 00:09:23;;;;;;;20.40;15.38;;;;;;;11.11;100.00;100241.63;5102778;29;20036;-71
2022/12/23 00:17:36;;;;;;;20.15;17.15;;;;;;;11.14;100.00;100254.44;5103654;29;20040;-72
2022/12/23 00:20:10;;;;;;;23.60;17.45;;;;;;;11.11;100.00;100258.19;5101722;29;20048;-71
2022/12/23 00:25:39;;;;;;;25.48;17.90;;;;;;;11.14;100.00;100252.66;5105683;29;20509;-72
2022/12/23 00:28:15;;;;;;;25.25;17.65;;;;;;;11.24;100.00;100264.84;5105971;29;20036;-71
2022/12/23 00:30:48;;;;;;;26.30;18.08;;;;;;;11.23;100.00;100256.16;5104391;29;20059;-71
2022/12/23 00:33:25;;;;;;;26.80;18.40;;;;;;;11.22;100.00;100266.81;5104637;29;20035;-71
2022/12/23 00:35:57;;;;;;;27.20;18.05;;;;;;;11.19;100.00;100267.94;5104022;29;20024;-71
2022/12/23 00:44:09;;;;;;;28.08;17.88;;;;;;;11.17;100.00;100277.72;5102938;29;20072;-71
2022/12/23 00:46:40;;;;;;;26.05;17.02;;;;;;;11.14;100.00;100281.47;5104796;29;20067;-71
2022/12/23 00:52:10;;;;;;;22.20;16.90;;;;;;;11.18;100.00;100285.47;5104569;29;20040;-72
2022/12/23 00:54:41;;;;;;;28.35;17.92;;;;;;;11.18;100.00;100297.75;5103269;29;20124;-71
2022/12/23 00:57:13;;;;;;;26.85;17.25;;;;;;;11.18;100.00;100300.38;5105662;29;20115;-71
2022/12/23 00:59:44;;;;;;;27.02;18.13;;;;;;;11.09;100.00;100286.31;5103737;29;20040;-72
2022/12/23 01:07:55;;;;;;;25.40;18.45;;;;;;;11.19;100.00;100309.88;5103498;29;20486;-72
2022/12/23 01:10:26;;;;;;;22.73;18.13;;;;;;;11.20;100.00;100319.38;5102126;29;20059;-71
2022/12/23 01:12:57;;;;;;;26.38;19.25;;;;;;;11.16;100.00;100308.38;5104123;29;20072;-71
2022/12/23 01:15:29;;;;;;;25.67;18.90;;;;;;;11.18;100.00;100311.69;5102600;29;20032;-72
2022/12/23 01:18:00;;;;;;;26.33;18.13;;;;;;;11.16;100.00;100310.16;5104703;29;20028;-71
2022/12/23 01:20:31;;;;;;;28.67;18.38;;;;;;;11.17;100.00;100314.44;5102370;29;20032;-71
2022/12/23 01:23:03;;;;;;;27.10;19.10;;;;;;;11.14;100.00;100304.25;5103136;29;20033;-71
2022/12/23 01:25:34;;;;;;;27.27;19.17;;;;;;;11.18;100.00;100310.84;5104266;29;20029;-71
2022/12/23 01:28:05;;;;;;;24.50;18.88;;;;;;;11.20;100.00;100311.53;5104217;29;20036;-71
2022/12/23 01:30:37;;;;;;;25.15;18.88;;;;;;;11.17;100.00;100310.03;5104646;29;20028;-72
2022/12/23 01:33:08;;;;;;;25.73;19.77;;;;;;;11.22;100.00;100314.00;5102834;29;20029;-71
2022/12/23 01:35:39;;;;;;;26.40;18.65;;;;;;;11.20;100.00;100319.38;5104043;29;20036;-71
2022/12/23 01:38:11;;;;;;;30.55;21.08;;;;;;;11.17;100.00;100307.41;5108271;29;20063;-71
2022/12/23 01:40:44;;;;;;;29.98;21.27;;;;;;;11.26;100.00;100320.63;5104096;29;20043;-71
2022/12/23 01:43:17;;;;;;;30.60;22.20;;;;;;;11.17;100.00;100317.06;5108609;29;20482;-71
2022/12/23 01:45:49;;;;;;;28.00;21.13;;;;;;;11.18;100.00;100321.34;5108785;29;20422;-71
2022/12/23 01:48:25;;;;;;;30.50;21.48;;;;;;;11.27;100.00;100322.25;5105681;29;20028;-72
2022/12/23 01:51:01;;;;;;;30.38;21.88;;;;;;;11.22;100.00;100322.69;5106302;29;20063;-71
2022/12/23 01:53:39;;;;;;;29.73;20.95;;;;;;;11.28;100.00;100337.00;5108372;29;20044;-71
2022/12/23 01:56:18;;;;;;;32.17;22.27;;;;;;;11.27;100.00;100336.19;5105955;29;20093;-72
2022/12/23 01:58:55;;;;;;;25.30;20.55;;;;;;;11.20;100.00;100327.25;5106507;29;20036;-72
2022/12/23 02:04:23;;;;;;;34.95;21.92;;;;;;;11.23;100.00;100347.13;5107476;29;20490;-71
2022/12/23 02:09:44;;;;;;;23.35;20.70;;;;;;;11.11;100.00;100357.81;5106864;29;20048;-71
2022/12/23 02:12:40;;;;;;;27.55;20.73;;;;;;;11.23;100.00;100353.19;5104492;29;20045;-71
2022/12/23 02:18:31;;;;;;;25.00;20.92;;;;;;;11.24;100.00;100352.19;5108411;29;20072;-70
2022/12/23 02:21:21;;;;;;;28.38;21.52;;;;;;;11.25;100.00;100351.25;5103940;29;20040;-70
2022/12/23 02:24:25;;;;;;;27.45;19.80;;;;;;;11.33;100.00;100350.53;5105214;29;20398;-70
2022/12/23 02:27:29;;;;;;;23.40;20.33;;;;;;;11.34;100.00;100355.59;5107679;29;20510;-69
2022/12/23 02:30:24;;;;;;;23.02;19.10;;;;;;;11.34;100.00;100360.84;5088846;29;20024;-70
2022/12/23 02:33:22;;;;;;;21.40;18.70;;;;;;;11.41;100.00;100364.53;5107402;29;20084;-70
2022/12/23 02:36:12;;;;;;;25.90;20.50;;;;;;;11.15;100.00;100372.28;5103647;29;20043;-70
2022/12/23 02:39:13;;;;;;;23.77;19.40;;;;;;;11.40;100.00;100389.13;5103838;29;20040;-70
2022/12/23 02:41:58;;;;;;;21.67;19.15;;;;;;;11.29;100.00;100386.69;5108608;29;20032;-70
2022/12/23 02:44:42;;;;;;;22.75;18.98;;;;;;;11.23;100.00;100400.38;5105951;29;20030;-70
2022/12/23 02:47:20;;;;;;;23.95;18.27;;;;;;;11.19;100.00;100405.09;5105734;29;20096;-69
2022/12/23 02:49:54;;;;;;;20.75;18.55;;;;;;;11.14;100.00;100409.94;5106791;29;20031;-69
2022/12/23 02:52:30;;;;;;;20.55;18.10;;;;;;;11.16;100.00;100417.66;5103461;29;20609;-70
2022/12/23 02:55:08;;;;;;;21.75;18.50;;;;;;;11.14;100.00;100417.81;5105550;29;20240;-70
2022/12/23 02:57:43;;;;;;;19.63;16.77;;;;;;;11.12;100.00;100432.03;5107769;29;20028;-70
2022/12/23 03:00:15;;;;;;;20.30;17.33;;;;;;;11.10;100.00;100418.22;5106240;29;20028;-69
2022/12/23 03:02:47;;;;;;;20.15;16.45;;;;;;;11.10;100.00;100408.59;5095601;29;20504;-70
2022/12/23 03:05:28;;;;;;;18.77;15.30;;;;;;;11.20;100.00;100408.53;5105635;29;20100;-69
2022/12/23 03:08:03;;;;;;;20.33;16.17;;;;;;;11.16;100.00;100418.47;5106562;29;20059;-69
2022/12/23 03:10:49;;;;;;;19.15;16.15;;;;;;;11.23;100.00;100425.78;5105473;29;20033;-70
2022/12/23 03:13:36;;;;;;;19.27;17.30;;;;;;;11.25;100.00;100424.69;5105382;29;20020;-70
2022/12/23 03:16:23;;;;;;;19.55;17.25;;;;;;;11.22;100.00;100424.13;5106903;29;20024;-70
2022/12/23 03:19:09;;;;;;;19.52;16.00;;;;;;;11.34;100.00;100420.34;5104624;29;20111;-69
2022/12/23 03:21:58;;;;;;;21.23;16.52;;;;;;;11.31;100.00;100421.47;5109160;29;20036;-69
2022/12/23 03:24:45;;;;;;;19.55;17.50;;;;;;;11.28;100.00;100416.50;5105515;29;20063;-70
2022/12/23 03:27:51;;;;;;;20.70;17.25;;;;;;;11.39;100.00;100424.19;5103726;29;20034;-70
2022/12/23 03:30:23;;;;;;;21.55;17.25;;;;;;;11.10;100.00;100418.22;5091094;29;20444;-70
2022/12/23 03:33:00;;;;;;;21.63;17.05;;;;;;;11.09;100.00;100406.91;5106423;29;20030;-70
2022/12/23 03:35:44;;;;;;;18.90;16.35;;;;;;;11.18;100.00;100405.25;5102907;29;20043;-70
2022/12/23 03:38:17;;;;;;;20.58;16.83;;;;;;;11.09;100.00;100406.91;5105799;29;20468;-70
2022/12/23 03:40:56;;;;;;;22.17;17.90;;;;;;;11.11;100.00;100414.66;5104227;29;20036;-70
2022/12/23 03:43:32;;;;;;;21.35;16.90;;;;;;;11.12;100.00;100424.16;5105780;29;20383;-70
2022/12/23 03:46:09;;;;;;;22.38;17.50;;;;;;;11.09;100.00;100412.16;5103761;29;20028;-70
2022/12/23 03:49:04;;;;;;;22.58;18.35;;;;;;;11.26;100.00;100410.59;5106192;29;20461;-70
2022/12/23 03:51:43;;;;;;;22.40;17.65;;;;;;;11.11;100.00;100409.41;5106069;29;20040;-70
2022/12/23 03:54:20;;;;;;;22.60;18.20;;;;;;;11.10;100.00;100418.22;5105294;29;20032;-70
2022/12/23 03:57:00;;;;;;;21.20;18.75;;;;;;;11.11;100.00;100412.84;5105288;29;20051;-70
2022/12/23 03:59:41;;;;;;;21.83;19.02;;;;;;;11.17;100.00;100414.06;5099298;29;20029;-70
2022/12/23 04:02:37;;;;;;;21.40;18.05;;;;;;;11.28;100.00;100420.91;5104083;29;20040;-69
2022/12/23 04:05:20;;;;;;;23.08;18.27;;;;;;;11.13;100.00;100429.25;5106897;29;20024;-70
2022/12/23 04:08:37;;;;;;;28.05;19.77;;;;;;;11.18;100.00;100429.66;5105060;29;20384;-70
2022/12/23 04:11:08;;;;;;;26.75;19.25;;;;;;;11.06;100.00;100432.59;5034983;29;20049;-70
2022/12/23 04:13:40;;;;;;;27.35;19.58;;;;;;;11.06;100.00;100432.59;5035382;29;20416;-70
2022/12/23 04:16:11;;;;;;;24.30;19.98;;;;;;;11.05;100.00;100426.53;5064321;29;20136;-70
2022/12/23 04:18:42;;;;;;;23.38;19.23;;;;;;;11.05;100.00;100439.63;5083774;29;20041;-70
2022/12/23 04:21:14;;;;;;;23.65;20.40;;;;;;;10.99;100.00;100442.03;5085759;29;20020;-70
2022/12/23 04:23:45;;;;;;;25.27;19.42;;;;;;;11.01;100.00;100445.31;5085207;29;20036;-70
2022/12/23 04:26:16;;;;;;;27.90;20.52;;;;;;;10.98;100.00;100448.22;5082155;29;20021;-69
2022/12/23 04:28:47;;;;;;;29.30;21.02;;;;;;;11.00;100.00;100454.97;5085270;29;20033;-70
2022/12/23 04:31:19;;;;;;;23.55;19.35;;;;;;;11.01;100.00;100466.28;5080206;29;21469;-69
2022/12/23 04:33:50;;;;;;;23.75;19.35;;;;;;;11.03;100.00;100459.13;5085159;29;20029;-69
2022/12/23 04:36:21;;;;;;;22.92;18.25;;;;;;;10.99;100.00;100470.84;5083162;29;20025;-70
2022/12/23 04:38:52;;;;;;;27.02;18.90;;;;;;;10.93;100.00;100459.94;5085040;29;20034;-69
2022/12/23 04:41:24;;;;;;;23.00;19.45;;;;;;;11.00;100.00;100459.41;5083682;29;20024;-69
2022/12/23 04:43:55;;;;;;;24.27;19.38;;;;;;;10.98;100.00;100464.75;5084321;29;20555;-70
2022/12/23 04:46:26;;;;;;;23.92;18.98;;;;;;;10.98;100.00;100458.69;5085854;29;20037;-69
2022/12/23 04:48:57;;;;;;;26.45;19.25;;;;;;;10.98;100.00;100454.28;5085550;29;20044;-70
2022/12/23 04:51:29;;;;;;;32.05;20.58;;;;;;;10.97;100.00;100447.38;5082641;29;20111;-69
2022/12/23 04:54:00;;;;;;;28.67;19.70;;;;;;;10.97;100.00;100444.78;5086473;29;20052;-70
2022/12/23 04:56:31;;;;;;;26.42;19.67;;;;;;;10.94;100.00;100440.63;5069673;29;20039;-70
2022/12/23 04:59:03;;;;;;;25.00;19.67;;;;;;;10.96;100.00;100443.94;5082602;29;20077;-70
2022/12/23 05:01:34;;;;;;;26.08;19.55;;;;;;;10.97;100.00;100444.78;5083863;29;20134;-69
2022/12/23 05:04:05;;;;;;;22.77;17.27;;;;;;;10.98;100.00;100429.88;5085777;29;20032;-69
2022/12/23 05:06:36;;;;;;;20.15;17.13;;;;;;;10.97;100.00;100423.81;5087570;29;20035;-69
2022/12/23 05:09:08;;;;;;;20.92;17.20;;;;;;;10.96;100.00;100428.22;5082987;29;20502;-69
2022/12/23 05:11:39;;;;;;;22.17;17.13;;;;;;;10.94;100.00;100432.75;5090186;29;20055;-70
2022/12/23 05:14:11;;;;;;;21.40;16.48;;;;;;;10.94;100.00;100431.94;5103292;29;20051;-69
2022/12/23 05:16:42;;;;;;;22.27;16.27;;;;;;;10.93;100.00;100438.16;5103384;29;20091;-69
2022/12/23 05:19:13;;;;;;;24.85;17.38;;;;;;;10.93;100.00;100448.66;5105482;29;20044;-69
2022/12/23 05:21:45;;;;;;;22.55;17.60;;;;;;;10.94;100.00;100452.91;5104405;29;20078;-69
2022/12/23 05:24:16;;;;;;;25.23;17.05;;;;;;;10.94;100.00;100458.16;5102803;29;20016;-69
2022/12/23 05:26:47;;;;;;;22.52;17.45;;;;;;;10.93;100.00;100467.81;5103393;29;20059;-69
2022/12/23 05:29:19;;;;;;;26.70;17.60;;;;;;;10.96;100.00;100474.56;5104227;29;20032;-69
2022/12/23 05:31:50;;;;;;;23.92;18.50;;;;;;;10.93;100.00;100473.06;5102979;29;20079;-69
2022/12/23 05:34:21;;;;;;;27.73;19.27;;;;;;;10.88;100.00;100474.47;5104139;29;20072;-69
2022/12/23 05:36:52;;;;;;;29.13;18.85;;;;;;;10.91;100.00;100484.63;5105118;29;20031;-69
2022/12/23 05:39:24;;;;;;;26.10;19.00;;;;;;;10.90;100.00;100486.44;5103467;29;20055;-69
2022/12/23 05:41:55;;;;;;;23.90;18.25;;;;;;;10.90;100.00;100490.84;5103193;29;20606;-70
2022/12/23 05:44:26;;;;;;;24.77;18.45;;;;;;;10.93;100.00;100495.81;5103536;29;20031;-69
2022/12/23 05:46:57;;;;;;;22.77;18.55;;;;;;;10.94;100.00;100489.59;5104211;29;20035;-69
2022/12/23 05:49:29;;;;;;;29.77;19.27;;;;;;;10.96;100.00;100485.88;5101540;29;20032;-70
2022/12/23 05:52:00;;;;;;;28.60;19.42;;;;;;;10.96;100.00;100483.25;5103122;29;20115;-69
2022/12/23 05:54:31;;;;;;;23.13;19.20;;;;;;;10.96;100.00;100480.63;5104021;29;20051;-70
2022/12/23 05:57:02;;;;;;;26.17;21.70;;;;;;;10.92;100.00;100471.41;5103034;29;20115;-70
2022/12/23 05:59:34;;;;;;;26.45;21.08;;;;;;;10.91;100.00;100469.75;5102409;29;20039;-70
2022/12/23 06:02:05;;;;;;;23.58;20.92;;;;;;;10.90;100.00;100462.03;5100744;29;20091;-70
2022/12/23 06:04:36;;;;;;;26.40;21.75;;;;;;;10.90;100.00;100465.47;5102061;29;20059;-70
2022/12/23 06:07:08;;;;;;;29.80;22.35;;;;;;;10.90;100.00;100451.53;5104462;29;20371;-70
2022/12/23 06:09:40;;;;;;;30.08;22.88;;;;;;;10.83;100.00;100448.66;5102046;29;20020;-70
2022/12/23 06:12:11;;;;;;;32.67;24.42;;;;;;;10.89;100.00;100453.34;5100128;29;20111;-70
2022/12/23 06:14:42;;;;;;;30.88;24.25;;;;;;;10.89;100.00;100445.47;5102826;29;20040;-70
2022/12/23 06:17:14;;;;;;;32.95;25.35;;;;;;;10.90;100.00;100443.69;5103027;29;20050;-70
2022/12/23 06:19:46;;;;;;;33.30;25.67;;;;;;;10.91;100.00;100442.69;5103944;29;20733;-70
2022/12/23 06:22:19;;;;;;;31.98;24.63;;;;;;;10.93;100.00;100448.66;5102367;29;20061;-70
2022/12/23 06:24:51;;;;;;;31.58;24.85;;;;;;;10.92;100.00;100434.72;5108159;29;20112;-70
2022/12/23 06:27:22;;;;;;;30.95;24.80;;;;;;;10.97;100.00;100444.78;5106381;29;20028;-70
2022/12/23 06:29:53;;;;;;;31.20;25.80;;;;;;;10.98;100.00;100445.59;5106748;29;21138;-70
2022/12/23 06:32:24;;;;;;;35.88;26.23;;;;;;;10.98;100.00;100449.03;5106516;29;20074;-70
2022/12/23 06:34:56;;;;;;;30.75;25.75;;;;;;;10.95;100.00;100450.16;5103504;29;20119;-70
2022/12/23 06:37:27;;;;;;;30.38;24.75;;;;;;;10.97;100.00;100457.88;5102396;29;20031;-70
2022/12/23 06:39:58;;;;;;;31.77;26.05;;;;;;;10.91;100.00;100448.81;5107949;29;20036;-70
2022/12/23 06:42:30;;;;;;;33.03;26.73;;;;;;;10.97;100.00;100465.72;5107036;29;20072;-70
2022/12/23 06:45:01;;;;;;;33.50;27.02;;;;;;;10.97;100.00;100460.50;5106692;29;20025;-70
2022/12/23 06:47:32;;;;;;;33.60;26.98;;;;;;;10.95;100.00;100468.50;5107900;29;20039;-70
2022/12/23 06:50:04;;;;;;;33.00;26.85;;;;;;;10.96;100.00;100475.41;5107645;29;20111;-70
2022/12/23 06:52:35;;;;;;;36.00;26.38;;;;;;;10.95;100.00;100479.00;5105696;29;20032;-70
2022/12/23 06:55:07;;;;;;;37.05;26.30;;;;;;;10.94;100.00;100471.25;5081860;29;20111;-70
2022/12/23 06:57:38;;;;;;;34.50;26.98;;;;;;;10.94;100.00;100486.97;5101168;29;20032;-70
2022/12/23 07:00:10;;;;;;;36.80;28.05;;;;;;;10.94;100.00;100494.84;5081663;29;20060;-70
2022/12/23 07:02:41;;;;;;;36.78;27.98;;;;;;;10.98;100.00;100503.25;5101778;29;20032;-70
2022/12/23 07:05:13;;;;;;;36.35;29.40;;;;;;;10.91;100.00;100519.56;5104517;29;20411;-70
2022/12/23 07:07:44;;;;;;;37.78;28.42;;;;;;;10.93;100.00;100527.28;5108767;29;20039;-70
2022/12/23 07:10:16;;;;;;;37.55;29.80;;;;;;;10.90;100.00;100532.78;5104300;29;20103;-70
2022/12/23 07:12:47;;;;;;;38.75;28.48;;;;;;;10.90;100.00;100524.94;5107641;29;20045;-70
2022/12/23 07:15:18;;;;;;;32.85;27.73;;;;;;;10.92;100.00;100509.91;5106708;29;20040;-70
2022/12/23 07:17:49;;;;;;;37.92;28.85;;;;;;;10.89;100.00;100503.13;5105284;29;20123;-70
2022/12/23 07:20:21;;;;;;;36.15;28.27;;;;;;;10.90;100.00;100490.84;5104848;29;20065;-70
2022/12/23 07:22:56;;;;;;;39.67;27.60;;;;;;;11.00;100.00;100499.53;5104961;29;20039;-70
2022/12/23 07:25:27;;;;;;;39.45;30.65;;;;;;;10.87;100.00;100497.22;5106543;29;20239;-70
2022/12/23 07:27:58;;;;;;;38.08;28.10;;;;;;;10.87;100.00;100499.84;5105205;29;20021;-70
2022/12/23 07:30:32;;;;;;;36.42;28.10;;;;;;;10.94;100.00;100500.09;5106048;29;20043;-70
2022/12/23 07:33:03;;;;;;;36.10;27.70;;;;;;;10.82;100.00;100499.41;5106002;29;20394;-70
2022/12/23 07:35:34;;;;;;;37.78;28.77;;;;;;;10.87;100.00;100497.22;5105186;29;20036;-70
2022/12/23 07:38:06;;;;;;;37.10;28.25;;;;;;;10.89;100.00;100494.44;5106236;29;20029;-70
2022/12/23 07:40:37;;;;;;;40.80;29.48;;;;;;;10.88;100.00;100484.94;5105433;29;20043;-70
2022/12/23 07:43:09;;;;;;;38.95;29.10;;;;;;;10.86;100.00;100492.94;5106494;29;21513;-70
2022/12/23 07:45:40;;;;;;;40.92;28.95;;;;;;;10.85;100.00;100482.59;5104070;29;20062;-70
2022/12/23 07:48:11;;;;;;;42.65;30.05;;;;;;;10.84;100.00;100488.81;5105123;29;20032;-70
2022/12/23 07:50:43;;;;;;;41.58;28.80;;;;;;;10.83;100.00;100487.13;5104228;29;20043;-70
2022/12/23 07:53:14;;;;;;;43.28;29.48;;;;;;;10.83;100.00;100493.19;5106269;29;20387;-70
2022/12/23 07:55:45;;;;;;;43.72;28.65;;;;;;;10.82;100.00;100502.03;5105537;29;20032;-70
2022/12/23 07:58:16;;;;;;;39.58;29.42;;;;;;;10.80;100.00;100477.78;5105369;29;20027;-70
2022/12/23 08:00:48;;;;;;;41.42;28.65;;;;;;;10.79;100.00;100488.38;5107290;29;20024;-70
2022/12/23 08:03:19;;;;;;;46.92;29.13;;;;;;;10.80;100.00;100505.78;5104824;29;20039;-70
2022/12/23 08:06:01;;;;;;;38.45;28.02;;;;;;;10.92;100.00;100491.56;5104864;29;20052;-70
2022/12/23 08:08:34;;;;;;;40.25;26.27;;;;;;;10.75;100.00;100479.97;5106652;29;20048;-69
2022/12/23 08:11:08;;;;;;;46.57;25.87;;;;;;;10.81;100.00;100476.81;5105892;29;20391;-70
2022/12/23 08:13:41;;;;;;;40.78;26.92;;;;;;;10.77;100.00;100475.44;5105040;29;20079;-70
2022/12/23 08:16:12;;;;;;;33.58;25.38;;;;;;;10.76;100.00;100468.56;5102972;29;20028;-70
2022/12/23 08:18:44;;;;;;;37.75;24.35;;;;;;;10.77;100.00;100464.97;5105024;29;20044;-70
2022/12/23 08:21:18;;;;;;;34.95;24.40;;;;;;;10.82;100.00;100467.16;5079766;29;20029;-70
2022/12/23 08:23:50;;;;;;;33.47;24.20;;;;;;;10.76;100.00;100473.78;5101791;29;20033;-70
2022/12/23 08:26:23;;;;;;;37.70;24.52;;;;;;;10.79;100.00;100475.28;5098251;29;20038;-70
2022/12/23 08:28:54;;;;;;;;;;;;;;;11.35;100.00;100480.50;5104492;29;20474;-70
2022/12/23 08:31:30;;;;;;;28.57;22.37;;;;;;;10.87;100.00;100478.03;5097336;29;19934;-70
2022/12/23 08:34:01;;;;;;;35.25;22.45;;;;;;;10.79;100.00;100477.91;5103893;29;20304;-70
2022/12/23 08:36:34;;;;;;;28.88;21.13;;;;;;;10.80;100.00;100493.50;5103156;29;20040;-70
2022/12/23 08:39:09;;;;;;;28.10;20.65;;;;;;;10.80;100.00;100469.94;5103739;29;20467;-70
2022/12/23 08:41:43;;;;;;;28.90;19.85;;;;;;;10.78;100.00;100466.59;5102668;29;20032;-70
2022/12/23 08:44:15;;;;;;;28.17;19.80;;;;;;;10.76;100.00;100465.94;5105528;29;20389;-70
2022/12/23 08:46:47;;;;;;;31.77;21.20;;;;;;;10.78;100.00;100461.38;5103524;29;20430;-70
2022/12/23 08:49:18;;;;;;;29.60;19.42;;;;;;;10.79;100.00;100454.31;5102497;29;20031;-70
2022/12/23 08:51:49;;;;;;;27.75;18.73;;;;;;;10.78;100.00;100450.88;5104641;29;20053;-70
2022/12/23 08:54:22;;;;;;;27.48;18.77;;;;;;;10.80;100.00;100448.13;5103512;29;20045;-70
2022/12/23 08:56:53;;;;;;;28.85;18.15;;;;;;;10.81;100.00;100452.41;5106056;29;20030;-70
2022/12/23 08:59:25;;;;;;;25.65;18.38;;;;;;;10.74;100.00;100446.88;5105023;29;20027;-70
2022/12/23 09:01:58;;;;;;;26.15;17.88;;;;;;;10.78;100.00;100450.88;5102380;29;20046;-70
2022/12/23 09:04:29;;;;;;;;;;;;;;;11.35;100.00;100443.81;5104178;29;20028;-70
2022/12/23 09:07:01;;;;;;;25.77;17.30;;;;;;;10.82;100.00;100430.47;5105205;29;19926;-70
2022/12/23 09:09:32;;;;;;;24.83;16.92;;;;;;;10.76;100.00;100420.53;5103207;29;20379;-70
2022/12/23 09:12:03;;;;;;;22.80;15.63;;;;;;;10.74;100.00;100418.06;5102542;29;20060;-70
2022/12/23 09:14:34;;;;;;;22.85;14.73;;;;;;;10.74;100.00;100412.81;5104690;29;20070;-70
2022/12/23 09:17:06;;;;;;;22.38;15.52;;;;;;;10.76;100.00;100416.16;5103455;29;20028;-70
2022/12/23 09:19:38;;;;;;;22.80;16.08;;;;;;;10.75;100.00;100411.84;5101715;29;20439;-70
2022/12/23 09:22:09;;;;;;;21.27;14.35;;;;;;;10.78;100.00;100408.13;5104336;29;20028;-70
2022/12/23 09:24:40;;;;;;;24.30;13.68;;;;;;;10.78;100.00;100400.28;5102423;29;20067;-70
2022/12/23 09:27:11;;;;;;;21.85;14.07;;;;;;;10.78;100.00;100395.03;5104129;29;20124;-70
2022/12/23 09:29:43;;;;;;;19.83;12.70;;;;;;;10.78;100.00;100397.66;5104883;29;20033;-70
2022/12/23 09:32:14;;;;;;;18.65;12.45;;;;;;;10.79;100.00;100396.69;5102263;29;20029;-70
2022/12/23 09:34:45;;;;;;;23.27;12.82;;;;;;;10.78;100.00;100400.28;5103796;29;20028;-70
2022/12/23 09:37:17;;;;;;;18.15;13.27;;;;;;;10.76;100.00;100392.56;5102433;29;20051;-70
2022/12/23 09:39:48;;;;;;;23.40;12.75;;;;;;;10.74;100.00;100391.03;5103525;29;20024;-71
2022/12/23 09:42:22;;;;;;;20.77;12.80;;;;;;;10.75;100.00;100398.75;5103485;29;20025;-71
2022/12/23 09:45:32;;;;;;;17.25;12.02;;;;;;;10.87;100.00;100384.53;5104962;29;20053;-70
2022/12/23 09:48:08;;;;;;;17.90;11.50;;;;;;;10.78;100.00;100374.06;5094661;29;20032;-71
2022/12/23 09:50:40;;;;;;;17.70;11.18;;;;;;;10.71;100.00;100361.53;5102729;29;20029;-70
2022/12/23 09:53:16;;;;;;;15.88;11.25;;;;;;;10.79;100.00;100360.81;5103673;29;20107;-70
2022/12/23 09:55:56;;;;;;;18.17;10.63;;;;;;;10.83;100.00;100372.66;5104381;29;20419;-70
2022/12/23 09:58:42;;;;;;;19.85;10.75;;;;;;;10.85;100.00;100385.63;5107844;29;20032;-70
2022/12/23 10:01:37;;;;;;;20.52;10.55;;;;;;;10.95;100.00;100384.63;5105682;29;20043;-70
2022/12/23 10:04:14;;;;;;;18.48;10.90;;;;;;;10.88;100.00;100386.19;5106653;29;20044;-70
2022/12/23 10:07:08;;;;;;;26.90;11.98;;;;;;;10.81;100.00;100389.50;5105086;29;20028;-70
2022/12/23 10:09:42;;;;;;;16.13;10.93;;;;;;;10.82;100.00;100378.88;5095647;29;20048;-70
2022/12/23 10:12:33;;;;;;;17.70;11.32;;;;;;;10.95;100.00;100361.06;5104166;29;20064;-70
2022/12/23 10:15:17;;;;;;;20.42;11.73;;;;;;;10.91;100.00;100354.44;5105548;29;20047;-70
2022/12/23 10:17:54;;;;;;;18.80;12.40;;;;;;;10.81;100.00;100351.03;5106716;29;20031;-70
2022/12/23 10:20:49;;;;;;;17.00;11.63;;;;;;;10.97;100.00;100347.78;5106427;29;20036;-73
2022/12/23 10:23:30;;;;;;;23.73;12.30;;;;;;;10.86;100.00;100343.56;5108361;29;20111;-70
2022/12/23 10:26:11;;;;;;;19.30;12.13;;;;;;;10.84;100.00;100331.59;5106439;29;20028;-70
2022/12/23 10:28:42;;;;;;;16.98;11.52;;;;;;;10.77;100.00;100328.72;5109309;29;20450;-70
2022/12/23 10:31:18;;;;;;;17.17;11.90;;;;;;;10.86;100.00;100327.81;5080420;29;20032;-73
2022/12/23 10:34:13;;;;;;;20.65;12.45;;;;;;;11.01;100.00;100314.25;5105712;29;20032;-71
2022/12/23 10:36:50;;;;;;;16.52;12.32;;;;;;;10.95;100.00;100306.00;5107981;29;20036;-71
2022/12/23 10:39:36;;;;;;;19.85;12.32;;;;;;;10.85;100.00;100305.22;5107839;29;20032;-71
2022/12/23 10:42:16;;;;;;;17.88;11.02;;;;;;;10.98;100.00;100306.66;5106201;29;20027;-71
2022/12/23 10:45:12;;;;;;;15.93;11.25;;;;;;;11.11;100.00;100300.13;5108529;29;20056;-71
2022/12/23 10:48:14;;;;;;;18.17;10.63;;;;;;;11.13;100.00;100279.81;5105484;29;20119;-71
2022/12/23 10:50:48;;;;;;;17.08;10.45;;;;;;;11.01;100.00;100288.03;5105356;29;20090;-73
2022/12/23 10:53:30;;;;;;;15.55;10.20;;;;;;;11.10;100.00;100274.03;5107956;29;20072;-71
2022/12/23 10:56:04;;;;;;;17.20;10.13;;;;;;;10.95;100.00;100266.69;5090197;29;20131;-71
2022/12/23 10:58:44;;;;;;;15.35;9.23;;;;;;;11.02;100.00;100259.03;5103506;29;20103;-71
2022/12/23 11:01:16;;;;;;;17.90;9.63;;;;;;;10.88;100.00;100249.09;5104979;29;20032;-71
2022/12/23 11:04:08;;;;;;;14.73;9.13;;;;;;;11.13;100.00;100244.91;5103888;29;20057;-71
2022/12/23 11:06:44;;;;;;;13.63;8.25;;;;;;;10.95;100.00;100239.66;5106211;29;20034;-71
2022/12/23 11:09:21;;;;;;;14.40;8.65;;;;;;;10.91;100.00;100226.03;5103229;29;20478;-71
2022/12/23 11:11:59;;;;;;;12.52;7.95;;;;;;;10.93;100.00;100226.69;5088813;29;20056;-71
2022/12/23 11:14:43;;;;;;;15.32;8.43;;;;;;;11.00;100.00;100226.13;5104800;29;20047;-71
2022/12/23 11:17:24;;;;;;;14.57;8.63;;;;;;;11.00;100.00;100226.13;5105267;29;20035;-71
2022/12/23 11:20:12;;;;;;;14.43;8.07;;;;;;;11.05;100.00;100229.09;5105808;29;20436;-71
2022/12/23 11:22:50;;;;;;;11.20;7.57;;;;;;;11.00;100.00;100232.19;5106148;29;20407;-71
2022/12/23 11:25:33;;;;;;;12.07;7.00;;;;;;;10.98;100.00;100228.88;5105397;29;20044;-71
2022/12/23 11:28:10;;;;;;;11.10;7.38;;;;;;;11.04;100.00;100219.59;5107338;29;20032;-71
2022/12/23 11:30:55;;;;;;;12.20;7.07;;;;;;;11.08;100.00;100215.72;5105621;29;20037;-71
2022/12/23 11:33:28;;;;;;;8.70;7.30;;;;;;;10.90;100.00;100194.72;5105479;29;20060;-71
2022/12/23 11:36:04;;;;;;;;;;;;;;;11.48;100.00;100203.91;5107204;29;20040;-71
2022/12/23 11:38:48;;;;;;;8.38;6.53;;;;;;;11.08;100.00;100199.97;5105639;29;19923;-71
2022/12/23 11:41:22;;;;;;;12.15;7.00;;;;;;;10.97;100.00;100190.53;5104090;29;20028;-71
2022/12/23 11:44:05;;;;;;;12.93;7.13;;;;;;;11.04;100.00;100178.47;5106151;29;20119;-71
2022/12/23 11:46:36;;;;;;;13.52;6.72;;;;;;;10.87;100.00;100176.66;5103722;29;20107;-71
2022/12/23 11:49:30;;;;;;;11.07;6.57;;;;;;;11.11;100.00;100174.28;5104160;29;20439;-71
2022/12/23 11:52:04;;;;;;;;;;;;;;;11.44;100.00;100161.47;5105959;29;20050;-71
2022/12/23 11:54:36;;;;;;;8.77;6.13;;;;;;;10.90;100.00;100156.22;5104763;29;19934;-71
2022/12/23 11:57:16;;;;;;;14.15;6.85;;;;;;;10.98;100.00;100152.03;5103064;29;20032;-71
2022/12/23 11:59:54;;;;;;;13.80;6.18;;;;;;;10.87;100.00;100146.06;5103501;29;21412;-71
2022/12/23 12:02:38;;;;;;;10.00;5.72;;;;;;;10.93;100.00;100123.66;5102359;29;20442;-71
2022/12/23 12:05:21;;;;;;;11.27;6.28;;;;;;;10.92;100.00;100124.66;5099816;29;20064;-71
2022/12/23 12:07:58;;;;;;;11.20;6.65;;;;;;;10.90;100.00;100103.00;5104974;29;20127;-71
2022/12/23 12:10:32;;;;;;;12.60;6.82;;;;;;;10.85;100.00;100090.34;5103278;29;20545;-71
2022/12/23 12:13:07;;;;;;;15.10;6.43;;;;;;;10.79;100.00;100072.59;5106211;29;20060;-71
2022/12/23 12:15:55;;;;;;;10.05;6.38;;;;;;;11.06;100.00;100070.84;5101909;29;20042;-71